Time;durP1;ratioP1;P1;durP2;ratioP2;P2;SDS_P1;SDS_P2;PMS_P1;PMS_P2;Temp;Humidity;BMP_temperature;BMP_pressure;BME280_temperature;BME280_humidity;BME280_pressure;Samples;Min_cycle;Max_cycle;Signal;HPM_P1;HPM_P2
2023/06/03 00:01:23;;;;;;;2.25;0.80;;;7.40;47.00;;;;;;5108357;28;20707;-55
2023/06/03 00:03:48;;;;;;;2.70;0.90;;;7.40;46.10;;;;;;5077241;28;20056;-53
2023/06/03 00:06:14;;;;;;;3.15;0.98;;;7.30;45.30;;;;;;5099628;28;20277;-53
2023/06/03 00:08:42;;;;;;;1.50;0.80;;;7.30;47.00;;;;;;5102087;28;20027;-51
2023/06/03 00:11:08;;;;;;;1.50;0.80;;;7.20;47.30;;;;;;5090996;27;20049;-52
2023/06/03 00:13:33;;;;;;;2.03;0.80;;;7.20;48.10;;;;;;5089304;28;20032;-51
2023/06/03 00:15:59;;;;;;;1.50;0.90;;;7.20;51.60;;;;;;5110853;28;20043;-54
2023/06/03 00:18:26;;;;;;;1.55;0.85;;;7.20;49.20;;;;;;5089916;28;20032;-54
2023/06/03 00:20:52;;;;;;;1.13;0.68;;;7.10;49.90;;;;;;5110955;28;20019;-50
2023/06/03 00:23:18;;;;;;;1.63;0.93;;;7.10;50.00;;;;;;5089614;28;20035;-53
2023/06/03 00:25:44;;;;;;;1.50;0.60;;;7.00;50.00;;;;;;5110541;28;20024;-52
2023/06/03 00:28:10;;;;;;;1.75;0.63;;;7.00;49.70;;;;;;5099558;28;20055;-54
2023/06/03 00:30:36;;;;;;;3.53;0.68;;;6.90;50.30;;;;;;5091504;28;20028;-53
2023/06/03 00:33:02;;;;;;;1.85;0.80;;;6.90;50.00;;;;;;5108544;28;20056;-55
2023/06/03 00:35:27;;;;;;;0.93;0.80;;;6.80;51.30;;;;;;5091311;27;20503;-54
2023/06/03 00:37:54;;;;;;;2.15;0.77;;;6.70;51.10;;;;;;5108490;28;20487;-51
2023/06/03 00:40:20;;;;;;;0.80;0.60;;;6.70;51.90;;;;;;5090751;28;20081;-54
2023/06/03 00:42:45;;;;;;;1.65;0.90;;;6.60;51.90;;;;;;5108262;28;20035;-55
2023/06/03 00:45:11;;;;;;;0.95;0.70;;;6.60;52.90;;;;;;5110984;28;20036;-55
2023/06/03 00:47:37;;;;;;;1.55;0.52;;;6.50;52.60;;;;;;5094766;28;20402;-52
2023/06/03 00:50:05;;;;;;;3.33;0.82;;;6.50;52.30;;;;;;5108187;28;20084;-54
2023/06/03 00:52:31;;;;;;;1.52;0.70;;;6.40;52.90;;;;;;5108316;28;20499;-55
2023/06/03 00:54:57;;;;;;;2.70;0.82;;;6.30;54.00;;;;;;5110815;28;20081;-53
2023/06/03 00:57:23;;;;;;;2.22;1.00;;;6.30;56.20;;;;;;5092512;28;20035;-53
2023/06/03 00:59:49;;;;;;;1.17;0.52;;;6.20;55.40;;;;;;5110796;28;20027;-53
2023/06/03 01:02:14;;;;;;;1.67;0.85;;;6.20;55.30;;;;;;5091263;28;20028;-54
2023/06/03 01:04:45;;;;;;;1.15;0.40;;;6.20;57.20;;;;;;5107092;28;20036;-52
2023/06/03 01:07:20;;;;;;;0.80;0.50;;;6.10;58.70;;;;;;5088270;28;20191;-55
2023/06/03 01:10:31;;;;;;;0.80;0.50;;;6.10;60.90;;;;;;5090057;28;20047;-51
2023/06/03 01:13:25;;;;;;;1.70;0.75;;;6.10;59.60;;;;;;5025227;28;20889;-53
2023/06/03 01:15:55;;;;;;;2.63;1.00;;;6.00;60.80;;;;;;5015970;28;20121;-53
2023/06/03 01:18:21;;;;;;;0.60;0.45;;;6.00;60.50;;;;;;5108250;28;20547;-51
2023/06/03 01:20:48;;;;;;;2.28;0.63;;;6.00;60.60;;;;;;5090569;28;20028;-54
2023/06/03 01:23:23;;;;;;;1.45;0.68;;;5.90;60.00;;;;;;5096105;28;20080;-52
2023/06/03 01:25:52;;;;;;;1.95;0.77;;;5.90;61.60;;;;;;5069583;28;20039;-54
2023/06/03 01:28:21;;;;;;;0.73;0.63;;;5.90;62.20;;;;;;5095372;28;20393;-54
2023/06/03 01:30:47;;;;;;;2.60;1.10;;;5.90;62.70;;;;;;5109780;28;20044;-53
2023/06/03 01:33:13;;;;;;;2.80;0.70;;;5.90;62.40;;;;;;5088427;28;20021;-53
2023/06/03 01:35:40;;;;;;;4.25;0.77;;;5.80;63.70;;;;;;5109338;28;20051;-55
2023/06/03 01:38:06;;;;;;;2.78;0.80;;;5.90;68.10;;;;;;5097334;28;20471;-54
2023/06/03 01:40:32;;;;;;;2.55;0.88;;;5.90;67.10;;;;;;5089964;28;20063;-55
2023/06/03 01:42:58;;;;;;;1.40;0.77;;;5.90;65.30;;;;;;5106898;28;20055;-54
2023/06/03 01:45:23;;;;;;;1.95;0.73;;;5.90;70.50;;;;;;5089947;28;20040;-55
2023/06/03 01:47:49;;;;;;;3.10;0.90;;;5.90;68.20;;;;;;5107298;28;20074;-54
2023/06/03 01:50:21;;;;;;;1.10;0.70;;;5.90;65.30;;;;;;5089807;28;20427;-53
2023/06/03 01:52:46;;;;;;;2.10;0.70;;;5.90;66.50;;;;;;5107491;28;20077;-54
2023/06/03 01:55:12;;;;;;;3.08;0.90;;;5.90;71.20;;;;;;5089725;28;20032;-53
2023/06/03 01:57:37;;;;;;;4.40;0.80;;;5.90;67.90;;;;;;5106870;28;20062;-51
2023/06/03 02:00:06;;;;;;;0.90;0.55;;;5.90;68.60;;;;;;5109394;28;20027;-52
2023/06/03 02:02:32;;;;;;;1.33;0.80;;;5.90;68.10;;;;;;5093216;28;20023;-53
2023/06/03 02:04:57;;;;;;;1.65;0.80;;;5.90;70.40;;;;;;5099148;28;20035;-55
2023/06/03 02:07:25;;;;;;;8.77;1.00;;;5.90;68.20;;;;;;5091747;28;20086;-50
2023/06/03 02:09:51;;;;;;;1.95;0.90;;;5.90;74.20;;;;;;5109332;28;20016;-51
2023/06/03 02:12:17;;;;;;;0.65;0.65;;;5.90;71.90;;;;;;5091264;28;20510;-54
2023/06/03 02:14:42;;;;;;;1.15;0.90;;;6.00;70.50;;;;;;5109337;28;20099;-51
2023/06/03 02:17:08;;;;;;;2.33;1.08;;;5.90;71.00;;;;;;5090185;28;20050;-54
2023/06/03 02:19:34;;;;;;;1.17;0.65;;;5.90;72.00;;;;;;5107967;28;20034;-52
2023/06/03 02:22:00;;;;;;;1.33;0.80;;;6.00;71.30;;;;;;5088630;28;20027;-55
2023/06/03 02:24:28;;;;;;;3.85;1.08;;;5.90;70.50;;;;;;5109442;28;20467;-51
2023/06/03 02:26:56;;;;;;;3.25;1.08;;;5.90;70.50;;;;;;5087670;28;20073;-52
2023/06/03 02:29:25;;;;;;;1.95;0.90;;;6.00;70.50;;;;;;5108627;28;20047;-55
2023/06/03 02:31:51;;;;;;;2.58;1.10;;;6.00;68.90;;;;;;5086917;28;20020;-54
2023/06/03 02:34:16;;;;;;;3.00;1.50;;;6.00;71.50;;;;;;5107696;28;20027;-53
2023/06/03 02:36:43;;;;;;;3.03;1.00;;;6.00;71.40;;;;;;5088550;28;20032;-51
2023/06/03 02:39:09;;;;;;;2.28;0.90;;;6.10;69.80;;;;;;5087191;28;20409;-55
2023/06/03 02:41:38;;;;;;;3.42;1.10;;;6.10;70.00;;;;;;5108259;28;20114;-51
2023/06/03 02:44:04;;;;;;;3.97;1.00;;;6.20;67.90;;;;;;5087513;28;20032;-52
2023/06/03 02:46:30;;;;;;;1.77;0.88;;;6.10;68.80;;;;;;5108033;28;20499;-50
2023/06/03 02:48:56;;;;;;;1.33;0.75;;;6.20;69.50;;;;;;5087106;28;20495;-51
2023/06/03 02:51:22;;;;;;;2.00;1.10;;;6.20;67.80;;;;;;5107795;28;20069;-54
2023/06/03 02:53:47;;;;;;;2.08;1.15;;;6.20;68.50;;;;;;5087379;28;20040;-54
2023/06/03 02:56:13;;;;;;;1.10;0.85;;;6.20;68.00;;;;;;5108109;28;20066;-56
2023/06/03 02:58:39;;;;;;;3.22;1.00;;;6.30;67.60;;;;;;5085739;28;20355;-54
2023/06/03 03:01:05;;;;;;;1.63;0.93;;;6.30;66.50;;;;;;5108006;28;20027;-53
2023/06/03 03:03:36;;;;;;;1.88;1.10;;;6.30;66.90;;;;;;5087023;28;20032;-52
2023/06/03 03:06:02;;;;;;;2.78;1.45;;;6.30;66.90;;;;;;5062847;28;20091;-53
2023/06/03 03:08:27;;;;;;;1.23;0.90;;;6.40;66.50;;;;;;5092053;28;20492;-52
2023/06/03 03:10:53;;;;;;;2.10;1.08;;;6.40;66.30;;;;;;5106481;28;20042;-54
2023/06/03 03:13:18;;;;;;;2.35;1.38;;;6.40;66.20;;;;;;5087001;28;20039;-53
2023/06/03 03:15:44;;;;;;;1.83;1.08;;;6.50;66.70;;;;;;5107857;28;20028;-52
2023/06/03 03:18:09;;;;;;;3.22;0.73;;;6.50;65.90;;;;;;5087093;28;20477;-55
2023/06/03 03:20:35;;;;;;;1.60;0.93;;;6.60;65.70;;;;;;5107026;28;20034;-52
2023/06/03 03:23:00;;;;;;;1.88;1.30;;;6.60;65.50;;;;;;5087017;28;20574;-50
2023/06/03 03:25:26;;;;;;;2.95;1.00;;;6.70;65.60;;;;;;5108278;28;20495;-53
2023/06/03 03:27:52;;;;;;;1.38;0.80;;;6.70;64.70;;;;;;5091739;28;20036;-54
2023/06/03 03:30:17;;;;;;;1.63;0.93;;;6.70;65.10;;;;;;5108625;28;20024;-53
2023/06/03 03:32:43;;;;;;;1.50;0.77;;;6.80;65.10;;;;;;5087032;28;20039;-56
2023/06/03 03:35:16;;;;;;;4.00;1.30;;;6.90;64.50;;;;;;5107858;28;20074;-54
2023/06/03 03:37:43;;;;;;;0.93;0.75;;;7.20;63.60;;;;;;5086606;28;20049;-59
2023/06/03 03:40:21;;;;;;;1.83;1.13;;;7.80;61.60;;;;;;5108054;28;20102;-54
2023/06/03 03:42:52;;;;;;;2.47;0.88;;;8.50;57.70;;;;;;5084962;28;20392;-55
2023/06/03 03:45:22;;;;;;;3.22;0.90;;;9.30;55.00;;;;;;5088300;28;20703;-52
2023/06/03 03:47:50;;;;;;;0.70;0.68;;;9.90;52.70;;;;;;5073566;28;20086;-58
2023/06/03 03:50:39;;;;;;;2.75;1.00;;;10.40;48.00;;;;;;5091782;28;20135;-54
2023/06/03 03:53:07;;;;;;;2.13;0.80;;;11.00;45.90;;;;;;5079314;28;20032;-52
2023/06/03 03:55:39;;;;;;;2.05;0.90;;;11.40;45.20;;;;;;5110724;28;20027;-56
2023/06/03 03:58:31;;;;;;;2.38;1.13;;;11.90;44.40;;;;;;5079312;28;20032;-55
2023/06/03 04:01:09;;;;;;;3.08;0.82;;;12.10;38.20;;;;;;5067618;28;20086;-53
2023/06/03 04:03:40;;;;;;;1.63;0.95;;;12.40;39.70;;;;;;5083522;28;20032;-57
2023/06/03 04:06:24;;;;;;;3.47;1.30;;;12.80;38.00;;;;;;5066314;28;20378;-57
2023/06/03 04:08:51;;;;;;;2.97;1.15;;;13.20;33.90;;;;;;5085555;28;20032;-57
2023/06/03 04:11:26;;;;;;;1.63;1.08;;;13.40;31.50;;;;;;5111364;28;20372;-55
2023/06/03 04:13:52;;;;;;;2.28;1.13;;;13.70;33.90;;;;;;5089845;28;20377;-57
2023/06/03 04:16:42;;;;;;;1.83;1.02;;;14.10;29.70;;;;;;5111116;28;20032;-55
2023/06/03 04:19:15;;;;;;;1.00;0.90;;;14.50;28.60;;;;;;5087702;28;20032;-55
2023/06/03 04:21:41;;;;;;;1.23;0.82;;;15.00;29.60;;;;;;5071081;28;20075;-55
2023/06/03 04:24:08;;;;;;;2.58;0.93;;;15.30;27.40;;;;;;5090148;28;20039;-54
2023/06/03 04:26:34;;;;;;;3.92;1.20;;;15.80;28.20;;;;;;5111040;28;20032;-52
2023/06/03 04:29:00;;;;;;;2.35;1.02;;;16.20;26.80;;;;;;5089608;27;20040;-54
2023/06/03 04:31:25;;;;;;;2.15;1.23;;;16.60;24.20;;;;;;5089844;28;20032;-56
2023/06/03 04:33:50;;;;;;;3.20;1.52;;;16.80;22.10;;;;;;5109978;28;20020;-54
2023/06/03 04:36:16;;;;;;;2.70;1.10;;;16.40;21.30;;;;;;5089918;28;20028;-54
2023/06/03 04:38:41;;;;;;;2.00;1.23;;;16.40;20.80;;;;;;5110523;28;20034;-54
2023/06/03 04:41:10;;;;;;;1.40;1.10;;;16.40;19.30;;;;;;5089760;28;20661;-55
2023/06/03 04:43:38;;;;;;;4.22;1.30;;;16.70;21.20;;;;;;5089148;28;20020;-51
2023/06/03 04:46:05;;;;;;;1.58;1.10;;;17.40;20.70;;;;;;5110484;28;20035;-55
2023/06/03 04:48:30;;;;;;;5.13;1.45;;;17.60;20.70;;;;;;5089567;28;20500;-54
2023/06/03 04:50:56;;;;;;;2.17;1.10;;;17.30;18.50;;;;;;5110445;28;20046;-53
2023/06/03 04:53:25;;;;;;;3.20;1.58;;;17.80;16.60;;;;;;5089597;28;20174;-53
2023/06/03 04:55:51;;;;;;;3.35;1.30;;;17.50;17.50;;;;;;5111072;28;20511;-53
2023/06/03 04:58:19;;;;;;;4.05;1.23;;;17.70;15.90;;;;;;5088913;28;20048;-56
2023/06/03 05:00:48;;;;;;;2.22;1.20;;;17.90;17.70;;;;;;5110265;28;20035;-54
2023/06/03 05:03:16;;;;;;;1.77;1.20;;;17.80;16.30;;;;;;5088769;28;20036;-56
2023/06/03 05:05:42;;;;;;;2.10;1.45;;;18.10;15.00;;;;;;5093807;28;20056;-52
2023/06/03 05:08:09;;;;;;;2.53;1.27;;;18.50;14.70;;;;;;5098277;28;20111;-53
2023/06/03 05:10:35;;;;;;;2.42;1.35;;;18.70;14.70;;;;;;5100948;28;20032;-50
2023/06/03 05:13:01;;;;;;;4.68;1.30;;;19.00;13.30;;;;;;5099938;28;20051;-54
2023/06/03 05:15:27;;;;;;;2.17;0.95;;;19.10;14.70;;;;;;5110534;28;20055;-55
2023/06/03 05:17:52;;;;;;;4.25;1.48;;;19.60;11.80;;;;;;5089392;28;20082;-53
2023/06/03 05:20:18;;;;;;;2.78;1.42;;;18.90;11.70;;;;;;5090542;28;20043;-53
2023/06/03 05:22:43;;;;;;;1.63;1.40;;;19.60;13.30;;;;;;5101741;28;20040;-57
2023/06/03 05:25:09;;;;;;;1.50;1.20;;;19.60;12.50;;;;;;5090658;28;20036;-55
2023/06/03 05:27:35;;;;;;;2.40;1.42;;;20.10;12.10;;;;;;5102809;28;20138;-55
2023/06/03 05:30:01;;;;;;;1.65;1.40;;;20.40;10.30;;;;;;5090244;28;20088;-53
2023/06/03 05:32:26;;;;;;;1.50;1.33;;;21.50;11.20;;;;;;5104130;28;20043;-54
2023/06/03 05:34:52;;;;;;;4.25;1.52;;;22.30;7.00;;;;;;5090600;28;20091;-54
2023/06/03 05:37:17;;;;;;;3.55;1.42;;;22.40;7.10;;;;;;5105006;28;20671;-54
2023/06/03 05:39:43;;;;;;;2.83;1.40;;;22.00;7.00;;;;;;5090429;28;20031;-55
2023/06/03 05:42:08;;;;;;;3.58;1.20;;;20.90;6.80;;;;;;5106072;28;20514;-53
2023/06/03 05:44:34;;;;;;;2.15;1.42;;;21.00;8.70;;;;;;5090384;28;20024;-54
2023/06/03 05:46:59;;;;;;;2.75;1.65;;;21.40;6.60;;;;;;5107155;28;20032;-55
2023/06/03 05:49:25;;;;;;;1.83;0.90;;;21.50;6.80;;;;;;5090333;28;20039;-51
2023/06/03 05:51:50;;;;;;;5.57;1.70;;;22.40;7.00;;;;;;5108389;28;20543;-55
2023/06/03 05:54:16;;;;;;;3.40;1.45;;;22.30;5.40;;;;;;5088759;28;20090;-54
2023/06/03 05:56:41;;;;;;;2.05;1.20;;;23.20;4.60;;;;;;5109502;28;20115;-55
2023/06/03 05:59:07;;;;;;;3.95;1.38;;;23.50;3.50;;;;;;5087196;28;20042;-51
2023/06/03 06:01:33;;;;;;;4.88;1.45;;;23.20;3.80;;;;;;5109373;28;20053;-55
2023/06/03 06:03:59;;;;;;;2.33;1.40;;;23.00;3.80;;;;;;5088258;28;20579;-55
2023/06/03 06:06:24;;;;;;;2.78;1.33;;;22.80;3.80;;;;;;5103484;28;20118;-56
2023/06/03 06:08:50;;;;;;;2.78;1.60;;;23.50;4.30;;;;;;5088444;28;20051;-53
2023/06/03 06:11:16;;;;;;;1.48;1.10;;;23.30;2.90;;;;;;5107273;28;20059;-55
2023/06/03 06:13:41;;;;;;;1.63;1.17;;;24.00;3.50;;;;;;5088305;28;20066;-54
2023/06/03 06:16:07;;;;;;;1.75;1.10;;;25.20;2.00;;;;;;5107725;28;20019;-55
2023/06/03 06:18:32;;;;;;;1.30;1.00;;;25.70;2.10;;;;;;5088324;28;20404;-55
2023/06/03 06:20:59;;;;;;;2.42;1.30;;;26.60;1.20;;;;;;5109065;28;20023;-53
2023/06/03 06:23:25;;;;;;;4.65;1.25;;;27.00;1.00;;;;;;5084660;28;20031;-51
2023/06/03 06:25:52;;;;;;;2.67;1.15;;;25.00;1.00;;;;;;5089311;28;20043;-56
2023/06/03 06:28:22;;;;;;;4.78;0.98;;;25.40;1.00;;;;;;5098410;28;20105;-54
2023/06/03 06:30:51;;;;;;;3.65;1.30;;;26.30;1.00;;;;;;5089294;28;20039;-55
2023/06/03 06:33:18;;;;;;;1.58;1.30;;;26.60;1.00;;;;;;5067749;28;20049;-55
2023/06/03 06:35:44;;;;;;;2.67;1.15;;;27.50;1.00;;;;;;5089375;28;20020;-55
2023/06/03 06:38:10;;;;;;;2.20;1.40;;;27.20;1.00;;;;;;5108795;28;20133;-53
2023/06/03 06:40:38;;;;;;;2.95;1.05;;;25.90;1.00;;;;;;5088011;28;20463;-55
2023/06/03 06:43:05;;;;;;;1.67;1.00;;;26.90;1.00;;;;;;5091202;28;20537;-52
2023/06/03 06:45:34;;;;;;;3.78;1.17;;;27.60;1.00;;;;;;5085453;28;20549;-55
2023/06/03 06:48:08;;;;;;;1.75;1.05;;;26.80;1.00;;;;;;5084664;28;20130;-55
2023/06/03 06:50:49;;;;;;;2.15;1.25;;;27.00;1.00;;;;;;5107552;28;20061;-54
2023/06/03 06:53:18;;;;;;;2.67;1.30;;;26.80;1.00;;;;;;5086361;28;20391;-52
2023/06/03 06:55:43;;;;;;;1.17;1.00;;;25.90;1.00;;;;;;5108164;28;20097;-54
2023/06/03 06:58:12;;;;;;;1.38;1.00;;;26.90;1.00;;;;;;5086479;28;20040;-54
2023/06/03 07:00:38;;;;;;;1.95;0.98;;;27.90;1.00;;;;;;5107587;28;20022;-49
2023/06/03 07:03:07;;;;;;;3.25;1.40;;;26.00;1.00;;;;;;5086364;28;20107;-54
2023/06/03 07:05:33;;;;;;;2.05;1.13;;;26.80;1.00;;;;;;5091905;28;20576;-54
2023/06/03 07:07:58;;;;;;;2.25;1.30;;;26.90;1.00;;;;;;5093822;28;20032;-55
2023/06/03 07:10:24;;;;;;;2.92;1.20;;;27.60;1.00;;;;;;5104724;28;20051;-54
2023/06/03 07:12:52;;;;;;;4.45;1.70;;;28.60;1.00;;;;;;5106340;28;20097;-55
2023/06/03 07:15:18;;;;;;;1.48;1.13;;;29.50;1.00;;;;;;5087443;28;20028;-55
2023/06/03 07:17:49;;;;;;;1.67;1.02;;;30.70;1.00;;;;;;5103575;28;20061;-55
2023/06/03 07:20:29;;;;;;;2.65;1.30;;;29.40;1.00;;;;;;5066536;28;20108;-54
2023/06/03 07:22:55;;;;;;;7.57;1.10;;;28.60;1.00;;;;;;5080559;28;20617;-54
2023/06/03 07:25:23;;;;;;;2.30;1.20;;;27.90;1.00;;;;;;5109457;28;20035;-52
2023/06/03 07:27:49;;;;;;;2.35;1.20;;;27.90;1.00;;;;;;5088624;28;20048;-55
2023/06/03 07:30:16;;;;;;;1.98;1.20;;;26.60;1.00;;;;;;5091488;28;20343;-56
2023/06/03 07:32:43;;;;;;;2.75;1.13;;;25.90;1.00;;;;;;5079000;28;20891;-56
2023/06/03 07:35:08;;;;;;;3.58;1.17;;;26.00;1.00;;;;;;5076344;28;20048;-53
2023/06/03 07:37:35;;;;;;;1.70;0.98;;;26.40;1.00;;;;;;5108196;28;20442;-54
2023/06/03 07:40:01;;;;;;;2.10;1.33;;;27.10;1.00;;;;;;5091329;28;20095;-52
2023/06/03 07:42:29;;;;;;;2.35;1.13;;;26.30;1.00;;;;;;5102501;28;20039;-55
2023/06/03 07:44:55;;;;;;;1.75;1.20;;;26.90;1.00;;;;;;5087066;28;20109;-54
2023/06/03 07:47:21;;;;;;;3.30;1.02;;;26.60;1.00;;;;;;5110779;28;20032;-53
2023/06/03 07:49:48;;;;;;;2.58;1.20;;;28.20;1.00;;;;;;5081956;28;20054;-54
2023/06/03 07:52:19;;;;;;;3.17;1.38;;;29.10;1.00;;;;;;5105425;28;20022;-54
2023/06/03 07:54:45;;;;;;;3.05;1.35;;;28.80;1.00;;;;;;5096941;28;20019;-55
2023/06/03 07:57:12;;;;;;;2.33;1.35;;;28.70;1.00;;;;;;5110110;28;20047;-53
2023/06/03 07:59:38;;;;;;;1.10;1.00;;;28.10;1.00;;;;;;5089002;28;20028;-54
2023/06/03 08:02:09;;;;;;;2.63;1.10;;;27.60;1.00;;;;;;5096983;28;20085;-52
2023/06/03 08:04:35;;;;;;;2.53;1.42;;;27.30;1.00;;;;;;5087506;28;20039;-54
2023/06/03 08:07:02;;;;;;;3.10;1.00;;;28.40;1.00;;;;;;5104673;28;20027;-56
2023/06/03 08:09:36;;;;;;;4.03;1.27;;;28.20;1.00;;;;;;5089175;27;20082;-54
2023/06/03 08:12:04;;;;;;;3.08;1.45;;;28.90;1.00;;;;;;5070595;28;20027;-55
2023/06/03 08:14:32;;;;;;;1.83;1.10;;;28.30;1.00;;;;;;5092525;28;20028;-54
2023/06/03 08:17:03;;;;;;;2.70;1.10;;;28.10;1.00;;;;;;5094780;28;20037;-55
2023/06/03 08:19:29;;;;;;;1.90;1.00;;;27.50;1.00;;;;;;5084595;28;20101;-53
2023/06/03 08:21:54;;;;;;;1.67;0.90;;;27.10;1.00;;;;;;5088567;28;20722;-54
2023/06/03 08:24:20;;;;;;;2.47;0.95;;;27.30;1.00;;;;;;5088572;28;20043;-56
2023/06/03 08:26:45;;;;;;;4.68;1.20;;;27.20;1.00;;;;;;5090231;28;20032;-55
2023/06/03 08:29:14;;;;;;;1.40;1.02;;;26.60;1.00;;;;;;5094166;28;20040;-53
2023/06/03 08:31:40;;;;;;;4.38;1.30;;;25.20;1.00;;;;;;5109726;28;20589;-55
2023/06/03 08:34:05;;;;;;;1.58;1.00;;;24.40;1.00;;;;;;5088038;28;20040;-56
2023/06/03 08:36:32;;;;;;;3.10;1.10;;;24.50;1.00;;;;;;5093688;28;20016;-53
2023/06/03 08:38:58;;;;;;;2.58;0.90;;;24.60;1.00;;;;;;5088204;28;20078;-54
2023/06/03 08:41:35;;;;;;;1.40;1.02;;;24.70;1.00;;;;;;5109819;28;20100;-51
2023/06/03 08:44:17;;;;;;;2.40;1.17;;;23.90;1.00;;;;;;5092261;28;20028;-56
2023/06/03 08:46:52;;;;;;;1.80;0.98;;;24.50;1.00;;;;;;5069857;28;20036;-54
2023/06/03 08:49:25;;;;;;;4.00;1.05;;;24.90;1.00;;;;;;5082377;28;20042;-54
2023/06/03 08:51:54;;;;;;;2.38;1.40;;;25.00;1.00;;;;;;5069388;28;20347;-56
2023/06/03 08:54:23;;;;;;;1.55;0.93;;;23.90;1.00;;;;;;5089169;28;20056;-55
2023/06/03 08:57:02;;;;;;;2.08;1.20;;;23.40;1.00;;;;;;5091454;28;20016;-56
2023/06/03 08:59:29;;;;;;;1.50;1.00;;;22.60;1.00;;;;;;5093358;28;20020;-55
2023/06/03 09:01:56;;;;;;;2.22;1.17;;;22.50;1.00;;;;;;5092714;28;20024;-54
2023/06/03 09:04:22;;;;;;;2.90;1.45;;;22.30;1.00;;;;;;5109885;28;20371;-54
2023/06/03 09:06:49;;;;;;;2.90;1.20;;;22.10;1.00;;;;;;5084843;28;20050;-57
2023/06/03 09:09:15;;;;;;;4.22;1.10;;;22.10;1.00;;;;;;5106313;28;20016;-56
2023/06/03 09:11:43;;;;;;;5.60;0.90;;;22.50;1.00;;;;;;5076696;28;20032;-56
2023/06/03 09:14:10;;;;;;;2.97;0.90;;;22.90;1.00;;;;;;5090718;28;20488;-55
2023/06/03 09:16:36;;;;;;;4.07;1.17;;;23.40;1.00;;;;;;5108840;28;20479;-54
2023/06/03 09:19:02;;;;;;;2.35;0.88;;;23.60;1.00;;;;;;5090031;28;20107;-55
2023/06/03 09:21:28;;;;;;;2.50;1.40;;;24.00;1.00;;;;;;5107401;28;20115;-55
2023/06/03 09:23:54;;;;;;;2.35;1.30;;;23.30;1.00;;;;;;5095206;28;20506;-56
2023/06/03 09:26:21;;;;;;;2.47;1.10;;;22.90;1.00;;;;;;5084347;28;20108;-53
2023/06/03 09:28:47;;;;;;;4.13;1.10;;;22.60;1.00;;;;;;5108282;28;20042;-56
2023/06/03 09:31:13;;;;;;;8.43;1.33;;;22.30;1.00;;;;;;5087538;28;20052;-56
2023/06/03 09:33:40;;;;;;;1.05;0.77;;;22.50;1.00;;;;;;5108637;28;20028;-56
2023/06/03 09:36:13;;;;;;;3.38;0.98;;;22.90;1.00;;;;;;5087214;28;20115;-55
2023/06/03 09:39:05;;;;;;;1.65;0.70;;;23.50;1.00;;;;;;5108751;28;20027;-55
2023/06/03 09:41:31;;;;;;;4.18;1.15;;;23.90;1.00;;;;;;5068052;28;20507;-55
2023/06/03 09:44:02;;;;;;;2.67;1.25;;;23.70;1.00;;;;;;5090380;28;20072;-54
2023/06/03 09:46:32;;;;;;;1.67;1.13;;;23.10;1.00;;;;;;5085619;28;20058;-52
2023/06/03 09:49:17;;;;;;;3.13;1.30;;;22.80;1.00;;;;;;5107873;28;20065;-55
2023/06/03 09:51:45;;;;;;;2.13;1.00;;;22.60;1.00;;;;;;5108708;28;20043;-54
2023/06/03 09:54:13;;;;;;;2.17;0.98;;;22.90;1.00;;;;;;5085929;28;20040;-52
2023/06/03 09:56:39;;;;;;;2.75;1.10;;;22.80;1.00;;;;;;5108574;28;20047;-53
2023/06/03 09:59:16;;;;;;;3.25;1.20;;;22.10;1.00;;;;;;5068524;28;20060;-59
2023/06/03 10:01:47;;;;;;;1.67;0.95;;;21.70;1.00;;;;;;5088655;28;20028;-58
2023/06/03 10:04:17;;;;;;;3.17;1.02;;;21.20;1.00;;;;;;5069898;28;20067;-57
2023/06/03 10:06:42;;;;;;;3.08;1.23;;;21.30;1.00;;;;;;5061950;28;20323;-56
2023/06/03 10:09:21;;;;;;;4.05;1.00;;;20.90;1.00;;;;;;5094200;28;20024;-58
2023/06/03 10:11:49;;;;;;;2.25;1.15;;;20.60;1.00;;;;;;5088798;28;20101;-58
2023/06/03 10:14:15;;;;;;;3.45;0.90;;;20.70;1.00;;;;;;5107982;28;20077;-57
2023/06/03 10:17:00;;;;;;;3.28;1.38;;;21.00;1.00;;;;;;5083765;28;20082;-57
2023/06/03 10:19:26;;;;;;;3.53;0.98;;;21.00;1.00;;;;;;5072552;28;20558;-57
2023/06/03 10:21:51;;;;;;;2.53;1.10;;;21.00;1.00;;;;;;5068659;28;20036;-57
2023/06/03 10:24:17;;;;;;;1.27;1.17;;;20.70;1.00;;;;;;5085394;28;20117;-57
2023/06/03 10:26:44;;;;;;;1.52;0.80;;;20.30;1.00;;;;;;5107964;28;20019;-57
2023/06/03 10:29:10;;;;;;;3.30;1.30;;;20.40;1.00;;;;;;5087993;28;20052;-57
2023/06/03 10:31:35;;;;;;;1.80;1.05;;;20.60;1.00;;;;;;5107858;28;20032;-57
2023/06/03 10:34:02;;;;;;;2.25;1.05;;;20.90;1.00;;;;;;5087289;28;20103;-57
2023/06/03 10:36:27;;;;;;;2.45;1.33;;;20.90;1.00;;;;;;5106483;28;20472;-57
2023/06/03 10:38:55;;;;;;;1.45;1.00;;;20.90;1.00;;;;;;5068597;28;20039;-58
2023/06/03 10:41:22;;;;;;;2.28;0.90;;;21.20;1.00;;;;;;5068469;28;20025;-55
2023/06/03 10:43:47;;;;;;;1.55;1.10;;;21.10;1.00;;;;;;5103376;28;20020;-58
2023/06/03 10:46:15;;;;;;;2.45;0.90;;;21.10;1.00;;;;;;5107345;28;20031;-56
2023/06/03 10:48:44;;;;;;;3.80;1.10;;;21.30;1.50;;;;;;5080402;28;20031;-56
2023/06/03 10:51:37;;;;;;;3.00;1.08;;;20.90;1.00;;;;;;5107223;28;20036;-58
2023/06/03 10:54:02;;;;;;;1.83;1.00;;;20.80;1.00;;;;;;5075752;28;20533;-58
2023/06/03 10:56:35;;;;;;;1.95;0.90;;;20.70;1.00;;;;;;5107391;28;20049;-57
2023/06/03 10:59:09;;;;;;;3.45;1.02;;;20.60;1.00;;;;;;5079879;28;20061;-56
2023/06/03 11:02:01;;;;;;;2.88;1.15;;;20.30;1.80;;;;;;5079040;28;20040;-57
2023/06/03 11:04:27;;;;;;;5.32;1.20;;;19.70;3.10;;;;;;5085347;28;20060;-57
2023/06/03 11:06:54;;;;;;;3.28;1.35;;;19.20;3.30;;;;;;5080396;28;20610;-56
2023/06/03 11:09:37;;;;;;;2.53;1.20;;;19.00;4.10;;;;;;5108388;28;20110;-58
2023/06/03 11:12:13;;;;;;;4.13;1.17;;;19.00;3.50;;;;;;5111889;28;20016;-59
2023/06/03 11:14:48;;;;;;;2.50;1.30;;;18.80;3.20;;;;;;5074432;28;20040;-56
2023/06/03 11:17:15;;;;;;;2.63;0.93;;;19.00;3.70;;;;;;5111743;28;20020;-56
2023/06/03 11:19:50;;;;;;;1.50;0.80;;;19.00;3.20;;;;;;5093051;28;20560;-58
2023/06/03 11:22:31;;;;;;;4.65;1.08;;;18.90;3.80;;;;;;5111710;28;20069;-57
2023/06/03 11:25:00;;;;;;;1.45;0.80;;;18.90;2.40;;;;;;5094550;28;20023;-57
2023/06/03 11:27:27;;;;;;;1.35;1.08;;;18.80;3.10;;;;;;5110316;28;20049;-58
2023/06/03 11:29:58;;;;;;;0.90;0.60;;;18.90;2.60;;;;;;5094193;28;20028;-56
2023/06/03 11:32:32;;;;;;;4.95;1.30;;;19.20;3.10;;;;;;5111481;28;20487;-58
2023/06/03 11:35:03;;;;;;;2.53;0.90;;;19.10;2.40;;;;;;5080040;28;20035;-53
2023/06/03 11:37:40;;;;;;;6.35;1.23;;;19.20;2.50;;;;;;5111153;28;20024;-58
2023/06/03 11:40:07;;;;;;;2.15;1.02;;;19.30;2.50;;;;;;5096579;28;20100;-57
2023/06/03 11:42:48;;;;;;;4.68;1.27;;;19.10;3.20;;;;;;5109168;28;20027;-57
2023/06/03 11:45:20;;;;;;;1.48;0.95;;;18.90;3.40;;;;;;5111545;28;20198;-58
2023/06/03 11:47:52;;;;;;;4.20;1.10;;;18.70;3.30;;;;;;5096124;28;20051;-58
2023/06/03 11:50:19;;;;;;;1.73;1.05;;;18.60;3.30;;;;;;5111154;28;20037;-57
2023/06/03 11:52:45;;;;;;;3.25;1.30;;;18.70;3.20;;;;;;5096298;28;20024;-57
2023/06/03 11:55:10;;;;;;;2.45;1.30;;;18.60;3.40;;;;;;5110984;28;20102;-57
2023/06/03 11:57:37;;;;;;;1.80;0.90;;;18.70;2.80;;;;;;5094555;28;20032;-58
2023/06/03 12:00:09;;;;;;;3.53;1.35;;;18.90;3.00;;;;;;5111025;28;20026;-57
2023/06/03 12:02:40;;;;;;;1.73;1.10;;;18.80;2.50;;;;;;5079122;28;20024;-56
2023/06/03 12:05:06;;;;;;;1.52;0.88;;;18.80;2.70;;;;;;5098589;28;20024;-56
2023/06/03 12:07:32;;;;;;;2.70;1.02;;;19.00;2.70;;;;;;5093371;28;20024;-57
2023/06/03 12:09:58;;;;;;;2.90;0.75;;;18.90;2.60;;;;;;5109746;28;20065;-57
2023/06/03 12:12:24;;;;;;;0.90;0.80;;;19.10;2.50;;;;;;5092573;28;20434;-57
2023/06/03 12:14:49;;;;;;;4.03;0.90;;;19.10;2.60;;;;;;5110387;28;20051;-57
2023/06/03 12:17:18;;;;;;;3.40;1.10;;;19.20;3.50;;;;;;5085509;28;20032;-57
2023/06/03 12:19:48;;;;;;;2.63;0.98;;;19.10;3.30;;;;;;5072097;28;20028;-57
2023/06/03 12:22:21;;;;;;;1.40;0.93;;;19.20;3.10;;;;;;5082193;28;20024;-58
2023/06/03 12:24:48;;;;;;;3.42;0.95;;;19.20;3.00;;;;;;5077912;28;20059;-55
2023/06/03 12:27:22;;;;;;;3.58;1.17;;;19.10;2.80;;;;;;5090846;28;20017;-57
2023/06/03 12:29:51;;;;;;;1.48;0.95;;;19.00;3.50;;;;;;5070517;28;20028;-56
2023/06/03 12:32:17;;;;;;;2.78;0.90;;;19.10;3.00;;;;;;5091847;28;20034;-58
2023/06/03 12:34:43;;;;;;;1.73;0.68;;;19.30;2.90;;;;;;5103212;28;20457;-55
2023/06/03 12:37:09;;;;;;;2.17;0.93;;;19.30;2.50;;;;;;5105509;28;20073;-58
2023/06/03 12:39:49;;;;;;;3.90;1.00;;;19.50;3.20;;;;;;5104953;28;20036;-58
2023/06/03 12:42:21;;;;;;;3.95;1.23;;;19.30;2.20;;;;;;5078930;28;20487;-57
2023/06/03 12:44:50;;;;;;;1.67;0.80;;;19.10;2.70;;;;;;5072254;28;20028;-56
2023/06/03 12:47:17;;;;;;;1.15;0.75;;;19.00;2.30;;;;;;5077822;28;20040;-56
2023/06/03 12:49:44;;;;;;;1.58;1.00;;;18.90;2.50;;;;;;5080333;28;20659;-57
2023/06/03 12:52:18;;;;;;;3.92;0.90;;;18.80;3.10;;;;;;5067383;28;20039;-57
2023/06/03 12:54:47;;;;;;;2.08;0.85;;;18.80;3.20;;;;;;5081165;28;20029;-57
2023/06/03 12:57:12;;;;;;;2.00;1.00;;;18.80;2.80;;;;;;5075971;28;20317;-57
2023/06/03 13:00:04;;;;;;;4.30;1.10;;;18.90;2.50;;;;;;5086852;28;20036;-56
2023/06/03 13:02:29;;;;;;;1.20;0.70;;;18.90;2.70;;;;;;5095225;28;20044;-56